Time;durP1;ratioP1;P1;durP2;ratioP2;P2;SDS_P1;SDS_P2;PMS_P1;PMS_P2;Temp;Humidity;BMP_temperature;BMP_pressure;BME280_temperature;BME280_humidity;BME280_pressure;Samples;Min_cycle;Max_cycle;Signal;HPM_P1;HPM_P2
2022/01/19 00:01:12;;;;;;;35.40;20.20;;;;;;;3.35;100.00;102991.47;5092310;28;20225;-45
2022/01/19 00:03:38;;;;;;;32.85;20.52;;;;;;;3.33;100.00;102988.78;5092591;28;20530;-43
2022/01/19 00:06:04;;;;;;;31.17;19.20;;;;;;;3.34;100.00;102987.00;5092744;28;20281;-43
2022/01/19 00:08:29;;;;;;;33.03;19.88;;;;;;;3.39;100.00;102977.41;5092445;28;20210;-44
2022/01/19 00:10:55;;;;;;;31.60;18.90;;;;;;;3.33;100.00;102967.56;5092454;28;20249;-46
2022/01/19 00:13:21;;;;;;;33.33;18.58;;;;;;;3.36;100.00;102964.09;5092329;28;20754;-44
2022/01/19 00:15:47;;;;;;;30.38;19.30;;;;;;;3.32;100.00;102968.41;5092221;28;20300;-41
2022/01/19 00:18:16;;;;;;;34.55;17.98;;;;;;;3.27;100.00;102967.41;5091593;28;20174;-44
2022/01/19 00:20:42;;;;;;;31.50;19.35;;;;;;;3.30;100.00;102980.72;5092451;28;20178;-40
2022/01/19 00:23:08;;;;;;;28.73;17.42;;;;;;;3.38;100.00;102989.78;5092340;28;20162;-41
2022/01/19 00:25:34;;;;;;;31.77;19.00;;;;;;;3.34;100.00;102989.66;5092134;28;20202;-42
2022/01/19 00:27:59;;;;;;;33.38;19.70;;;;;;;3.36;100.00;102983.53;5092137;28;20181;-42
2022/01/19 00:30:26;;;;;;;30.95;18.27;;;;;;;3.38;100.00;102978.28;5092003;28;20273;-43
2022/01/19 00:32:52;;;;;;;31.00;19.05;;;;;;;3.33;100.00;102978.16;5091002;28;20280;-41
2022/01/19 00:35:17;;;;;;;28.42;17.73;;;;;;;3.34;100.00;102982.59;5090475;28;20253;-43
2022/01/19 00:37:43;;;;;;;31.00;19.08;;;;;;;3.33;100.00;102969.34;5090255;28;20177;-43
2022/01/19 00:40:12;;;;;;;29.60;18.50;;;;;;;3.33;100.00;102962.28;5091906;28;20167;-41
2022/01/19 00:42:38;;;;;;;30.50;19.00;;;;;;;3.40;100.00;102936.84;5091876;28;20166;-42
2022/01/19 00:45:05;;;;;;;33.10;18.80;;;;;;;3.32;100.00;102920.72;5092241;28;20714;-42
2022/01/19 00:47:31;;;;;;;32.72;19.67;;;;;;;3.33;100.00;102913.69;5091686;28;20630;-43
2022/01/19 00:49:56;;;;;;;35.22;21.05;;;;;;;3.42;100.00;102924.53;5091832;28;20173;-40
2022/01/19 00:52:21;;;;;;;32.72;20.33;;;;;;;3.36;100.00;102906.69;5090285;28;20648;-43
2022/01/19 00:54:47;;;;;;;26.98;19.52;;;;;;;3.32;100.00;102907.47;5090516;28;20185;-42
2022/01/19 00:57:13;;;;;;;32.72;21.25;;;;;;;3.25;100.00;102903.78;5089945;28;20190;-42
2022/01/19 00:59:39;;;;;;;38.08;22.35;;;;;;;3.18;100.00;102895.66;5092187;28;20603;-43
2022/01/19 01:02:06;;;;;;;37.10;22.05;;;;;;;3.04;100.00;102889.97;5090176;28;20283;-42
2022/01/19 01:04:32;;;;;;;33.72;22.15;;;;;;;3.02;100.00;102889.97;5090066;28;20292;-40
2022/01/19 01:06:59;;;;;;;42.38;22.10;;;;;;;3.09;100.00;102885.72;5091341;28;20201;-44
2022/01/19 01:09:25;;;;;;;35.25;22.40;;;;;;;3.15;100.00;102887.59;5091299;28;20181;-42
2022/01/19 01:12:02;;;;;;;38.55;22.27;;;;;;;3.12;100.00;102877.84;5091386;28;20194;-41
2022/01/19 01:20:04;;;;;;;43.15;23.20;;;;;;;3.05;100.00;102870.59;5091090;28;20173;-41
2022/01/19 01:22:30;;;;;;;35.25;21.67;;;;;;;3.10;100.00;102868.97;5089913;28;20166;-40
2022/01/19 01:24:55;;;;;;;34.60;22.02;;;;;;;3.12;100.00;102869.91;5091521;28;20196;-41
2022/01/19 01:27:21;;;;;;;36.70;21.17;;;;;;;3.17;100.00;102865.63;5089385;28;20198;-42
2022/01/19 01:29:47;;;;;;;34.92;21.42;;;;;;;3.11;100.00;102856.63;5089380;28;20169;-40
2022/01/19 01:32:12;;;;;;;36.20;20.88;;;;;;;3.06;100.00;102832.66;5090738;28;20186;-41
2022/01/19 01:34:38;;;;;;;34.80;21.20;;;;;;;3.04;100.00;102834.38;5089927;28;20654;-40
2022/01/19 01:37:03;;;;;;;36.42;21.85;;;;;;;3.03;100.00;102832.59;5088965;28;20571;-40
2022/01/19 01:39:29;;;;;;;35.22;19.60;;;;;;;2.96;100.00;102831.53;5090766;28;20257;-40
2022/01/19 01:41:56;;;;;;;33.03;19.50;;;;;;;2.99;100.00;102825.44;5089383;28;20257;-42
2022/01/19 01:44:25;;;;;;;31.15;19.45;;;;;;;3.07;100.00;102808.88;5089457;28;20193;-41
2022/01/19 01:46:55;;;;;;;31.58;19.00;;;;;;;2.94;100.00;102804.13;5090545;28;20182;-41
2022/01/19 01:49:29;;;;;;;29.45;19.10;;;;;;;2.96;100.00;102791.81;5090420;28;20178;-43
2022/01/19 01:54:42;;;;;;;29.98;17.42;;;;;;;2.85;100.00;102762.44;5090560;28;20178;-43
2022/01/19 01:57:08;;;;;;;32.05;18.23;;;;;;;2.83;100.00;102764.16;5089144;28;20615;-40
2022/01/19 01:59:35;;;;;;;29.80;18.42;;;;;;;2.94;100.00;102750.28;5089059;28;20178;-42
2022/01/19 02:02:26;;;;;;;32.72;18.58;;;;;;;2.96;100.00;102738.00;5089196;28;20177;-43
2022/01/19 02:04:51;;;;;;;27.35;17.73;;;;;;;2.99;100.00;102735.41;5089183;28;20185;-41
2022/01/19 02:07:40;;;;;;;29.27;18.48;;;;;;;3.02;100.00;102727.56;5088616;28;20285;-43
2022/01/19 02:10:15;;;;;;;29.63;18.77;;;;;;;2.98;100.00;102715.97;5089072;28;20166;-43
2022/01/19 02:23:46;;;;;;;29.95;19.20;;;;;;;3.01;100.00;102696.63;5088787;28;20197;-43
2022/01/19 02:26:19;;;;;;;35.08;19.10;;;;;;;2.99;100.00;102706.28;5088745;28;20194;-41
2022/01/19 02:36:54;;;;;;;33.47;19.90;;;;;;;2.97;100.00;102684.16;5105097;28;20202;-41
2022/01/19 02:42:09;;;;;;;33.20;20.50;;;;;;;2.96;100.00;102674.44;5085343;28;20721;-42
2022/01/19 02:49:42;;;;;;;34.10;20.20;;;;;;;2.99;100.00;102674.50;5113745;28;20579;-41
2022/01/19 02:52:07;;;;;;;32.88;19.58;;;;;;;2.94;100.00;102661.16;5114346;28;20193;-39
2022/01/19 02:54:33;;;;;;;36.65;20.15;;;;;;;2.97;100.00;102650.63;5112459;28;20180;-42
2022/01/19 02:57:01;;;;;;;32.78;21.73;;;;;;;2.99;100.00;102654.19;5113783;28;20265;-42
2022/01/19 03:10:33;;;;;;;45.20;20.17;;;;;;;2.96;100.00;102629.44;5112870;28;20292;-42
2022/01/19 03:12:58;;;;;;;35.28;20.30;;;;;;;3.00;100.00;102618.06;5112283;28;20320;-42
2022/01/19 03:15:24;;;;;;;36.22;20.95;;;;;;;2.98;100.00;102610.06;5111838;28;20286;-43
2022/01/19 03:17:53;;;;;;;37.25;21.02;;;;;;;2.93;100.00;102608.16;5111737;28;20177;-43
2022/01/19 03:20:18;;;;;;;38.20;20.38;;;;;;;2.96;100.00;102595.91;5095762;28;20213;-42
2022/01/19 03:22:48;;;;;;;28.05;18.70;;;;;;;3.06;100.00;102602.28;5112584;28;20209;-43
2022/01/19 03:25:14;;;;;;;37.67;19.90;;;;;;;2.91;100.00;102607.22;5112376;28;20180;-42
2022/01/19 03:27:45;;;;;;;38.42;18.95;;;;;;;2.91;100.00;102594.91;5112089;28;20533;-41
2022/01/19 03:30:12;;;;;;;31.85;18.23;;;;;;;2.98;100.00;102577.41;5112260;28;20173;-41
2022/01/19 03:32:37;;;;;;;28.83;17.73;;;;;;;3.05;100.00;102566.97;5113919;28;20645;-42
2022/01/19 03:35:03;;;;;;;37.10;19.30;;;;;;;2.97;100.00;102563.25;5112046;28;20242;-43
2022/01/19 03:37:29;;;;;;;34.63;18.63;;;;;;;3.01;100.00;102567.75;5112110;28;20189;-41
2022/01/19 03:39:54;;;;;;;35.17;19.58;;;;;;;2.90;100.00;102553.41;5112264;28;20253;-44
2022/01/19 03:42:20;;;;;;;32.72;18.38;;;;;;;2.97;100.00;102554.41;5111933;28;20637;-44
2022/01/19 03:44:47;;;;;;;37.10;19.63;;;;;;;2.96;100.00;102558.84;5112064;28;20588;-42
2022/01/19 03:47:13;;;;;;;37.95;19.70;;;;;;;2.93;100.00;102548.19;5111884;28;20256;-43
2022/01/19 03:49:39;;;;;;;40.80;20.55;;;;;;;2.89;100.00;102541.03;5112097;28;20264;-42
2022/01/19 03:52:06;;;;;;;36.33;19.60;;;;;;;2.83;100.00;102532.97;5111919;28;20201;-42
2022/01/19 03:54:37;;;;;;;39.65;19.33;;;;;;;2.88;100.00;102518.94;5111990;28;20165;-43
2022/01/19 03:57:03;;;;;;;34.22;19.55;;;;;;;2.88;100.00;102518.94;5111571;28;20228;-43
2022/01/19 03:59:30;;;;;;;33.67;18.40;;;;;;;2.93;100.00;102516.44;5113194;28;20597;-40
2022/01/19 04:01:57;;;;;;;39.10;20.73;;;;;;;2.89;100.00;102511.91;5112744;28;20245;-40
2022/01/19 04:04:48;;;;;;;35.60;19.33;;;;;;;2.74;100.00;102511.59;5111181;28;20603;-41
2022/01/19 04:07:15;;;;;;;36.17;18.52;;;;;;;2.76;100.00;102505.47;5111363;28;20220;-41
2022/01/19 04:09:44;;;;;;;33.20;19.67;;;;;;;2.72;100.00;102494.78;5111493;28;20672;-40
2022/01/19 04:12:14;;;;;;;34.67;18.40;;;;;;;2.79;100.00;102486.13;5111585;28;20193;-42
2022/01/19 04:14:40;;;;;;;35.20;18.60;;;;;;;2.84;100.00;102485.38;5111228;28;20238;-41
2022/01/19 04:17:10;;;;;;;35.60;19.35;;;;;;;2.71;100.00;102474.47;5111118;28;20204;-39
2022/01/19 04:19:47;;;;;;;40.05;19.95;;;;;;;2.67;100.00;102470.88;5112947;28;20182;-43
2022/01/19 04:22:18;;;;;;;33.55;19.25;;;;;;;2.70;100.00;102460.34;5111238;28;20633;-40
2022/01/19 04:24:45;;;;;;;34.70;20.75;;;;;;;2.67;100.00;102465.59;5110909;28;20475;-44
2022/01/19 04:30:07;;;;;;;37.95;20.02;;;;;;;2.65;100.00;102446.16;5111420;28;20226;-41
2022/01/19 04:32:51;;;;;;;30.20;19.45;;;;;;;2.67;100.00;102450.59;5094592;28;20201;-41
2022/01/19 04:35:24;;;;;;;31.73;18.67;;;;;;;2.64;100.00;102437.28;5094579;28;20602;-42
2022/01/19 04:44:12;;;;;;;31.33;18.15;;;;;;;2.62;100.00;102449.63;5104931;28;20186;-40
2022/01/19 05:02:46;;;;;;;33.08;18.20;;;;;;;2.54;100.00;102445.03;5081899;28;20181;-41
2022/01/19 05:15:43;;;;;;;30.00;16.75;;;;;;;2.62;100.00;102431.09;5109849;28;20207;-43
2022/01/19 05:18:12;;;;;;;36.78;17.50;;;;;;;2.67;100.00;102439.13;5110027;28;20162;-39
2022/01/19 05:20:38;;;;;;;33.65;16.33;;;;;;;2.60;100.00;102431.91;5110468;28;20215;-44
2022/01/19 05:23:04;;;;;;;32.53;17.52;;;;;;;2.57;100.00;102439.78;5110403;28;20577;-40
2022/01/19 05:25:29;;;;;;;26.63;15.98;;;;;;;2.60;100.00;102434.56;5109987;28;20223;-41
2022/01/19 05:28:05;;;;;;;32.90;17.88;;;;;;;2.61;100.00;102434.59;5109980;28;20184;-41
2022/01/19 05:30:31;;;;;;;33.15;18.00;;;;;;;2.53;100.00;102427.34;5109971;28;20162;-42
2022/01/19 05:32:57;;;;;;;32.05;18.08;;;;;;;2.61;100.00;102421.38;5109942;28;20213;-41
2022/01/19 05:35:24;;;;;;;32.58;17.50;;;;;;;2.62;100.00;102409.03;5110268;28;20284;-41
2022/01/19 05:38:06;;;;;;;36.75;17.70;;;;;;;2.58;100.00;102416.03;5095673;28;20420;-41
2022/01/19 05:40:37;;;;;;;34.88;17.10;;;;;;;2.59;100.00;102414.25;5089425;28;20165;-42
2022/01/19 05:43:03;;;;;;;30.77;17.42;;;;;;;2.59;100.00;102407.22;5089785;28;20200;-42
2022/01/19 05:45:28;;;;;;;34.38;18.00;;;;;;;2.62;100.00;102402.00;5088949;28;20468;-42
2022/01/19 05:48:02;;;;;;;31.08;17.92;;;;;;;2.59;100.00;102387.81;5089633;28;20551;-41
2022/01/19 05:50:30;;;;;;;31.95;17.77;;;;;;;2.56;100.00;102385.06;5089681;28;20174;-43
2022/01/19 05:53:00;;;;;;;32.25;17.85;;;;;;;2.52;100.00;102389.44;5089211;28;20292;-44
2022/01/19 05:55:26;;;;;;;34.33;17.35;;;;;;;2.57;100.00;102384.22;5089291;28;20722;-45
2022/01/19 05:57:52;;;;;;;30.77;17.42;;;;;;;2.59;100.00;102371.94;5088998;28;20230;-42
2022/01/19 06:00:18;;;;;;;32.45;17.73;;;;;;;2.53;100.00;102358.56;5089095;28;20177;-43
2022/01/19 06:02:49;;;;;;;34.95;18.55;;;;;;;2.59;100.00;102361.34;5090833;28;20177;-44
2022/01/19 06:05:19;;;;;;;33.47;18.20;;;;;;;2.47;100.00;102349.66;5089204;28;20213;-44
2022/01/19 06:08:12;;;;;;;35.10;18.17;;;;;;;2.50;100.00;102345.31;5089361;28;20181;-43
2022/01/19 06:10:47;;;;;;;35.88;16.75;;;;;;;2.54;100.00;102347.16;5090141;28;20266;-44
2022/01/19 06:13:18;;;;;;;36.05;18.55;;;;;;;2.56;100.00;102327.78;5089024;28;20262;-44
2022/01/19 06:15:45;;;;;;;34.35;18.08;;;;;;;2.49;100.00;102333.81;5088155;28;20293;-44
2022/01/19 06:18:12;;;;;;;33.75;18.40;;;;;;;2.45;100.00;102313.47;5088056;28;20224;-43
2022/01/19 06:20:38;;;;;;;32.05;16.92;;;;;;;2.49;100.00;102310.00;5090584;28;20166;-44
2022/01/19 06:23:03;;;;;;;31.80;17.48;;;;;;;2.45;100.00;102298.47;5090441;28;20177;-44
2022/01/19 06:25:31;;;;;;;30.67;17.42;;;;;;;2.47;100.00;102286.19;5088731;28;20198;-45
2022/01/19 06:27:57;;;;;;;32.40;17.42;;;;;;;2.52;100.00;102291.56;5088828;28;20176;-44
2022/01/19 06:30:22;;;;;;;34.33;18.27;;;;;;;2.50;100.00;102289.75;5090302;28;20635;-44
2022/01/19 06:32:48;;;;;;;32.45;18.65;;;;;;;2.53;100.00;102280.09;5088477;28;20213;-44
2022/01/19 06:35:15;;;;;;;41.28;19.02;;;;;;;2.61;100.00;102272.31;5088924;28;20224;-42
2022/01/19 06:37:49;;;;;;;33.60;19.35;;;;;;;2.51;100.00;102260.66;5088500;28;20251;-45
2022/01/19 06:40:25;;;;;;;31.60;18.30;;;;;;;2.63;100.00;102262.66;5089494;28;20648;-44
2022/01/19 06:42:53;;;;;;;35.00;18.40;;;;;;;2.53;100.00;102261.56;5088669;28;20716;-44
2022/01/19 06:45:18;;;;;;;39.13;19.65;;;;;;;2.44;100.00;102251.72;5088104;28;20170;-42
2022/01/19 06:47:44;;;;;;;35.65;18.75;;;;;;;2.40;100.00;102257.81;5089624;28;20170;-44
2022/01/19 06:50:12;;;;;;;35.40;19.48;;;;;;;2.52;100.00;102253.63;5088373;28;20205;-42
2022/01/19 06:52:41;;;;;;;35.38;18.23;;;;;;;2.45;100.00;102244.69;5088471;28;20238;-42
2022/01/19 06:55:07;;;;;;;37.63;18.55;;;;;;;2.40;100.00;102230.47;5089433;28;20205;-43
2022/01/19 06:57:32;;;;;;;34.80;19.02;;;;;;;2.37;100.00;102215.44;5088431;28;20169;-42
2022/01/19 07:00:24;;;;;;;33.05;17.17;;;;;;;2.41;100.00;102219.94;5065743;28;20181;-44
2022/01/19 07:03:22;;;;;;;33.00;18.50;;;;;;;2.47;100.00;102216.47;5066340;28;20208;-43
2022/01/19 07:05:51;;;;;;;29.27;17.33;;;;;;;2.49;100.00;102214.75;5088189;28;20216;-45
2022/01/19 07:08:41;;;;;;;36.22;18.33;;;;;;;2.49;100.00;102214.75;5088837;28;20248;-45
2022/01/19 07:11:06;;;;;;;33.88;19.17;;;;;;;2.52;100.00;102211.31;5089829;28;20257;-44
2022/01/19 07:13:33;;;;;;;38.17;19.98;;;;;;;2.64;100.00;102200.91;5087925;28;20220;-43
2022/01/19 07:15:59;;;;;;;38.33;19.88;;;;;;;2.46;100.00;102202.38;5089405;28;20690;-42
2022/01/19 07:18:24;;;;;;;41.70;21.40;;;;;;;2.40;100.00;102194.31;5089701;28;20212;-42
2022/01/19 07:20:51;;;;;;;40.38;21.00;;;;;;;2.40;100.00;102196.97;5088393;28;20174;-44
2022/01/19 07:23:19;;;;;;;34.90;20.92;;;;;;;2.51;100.00;102178.63;5088272;28;20223;-43
2022/01/19 07:25:44;;;;;;;41.15;21.13;;;;;;;2.47;100.00;102176.81;5087339;28;20189;-44
2022/01/19 07:28:11;;;;;;;39.15;20.42;;;;;;;2.41;100.00;102168.78;5089013;28;20182;-44
2022/01/19 07:30:39;;;;;;;38.65;20.33;;;;;;;2.39;100.00;102174.03;5091573;28;20227;-43
2022/01/19 07:33:05;;;;;;;37.95;19.67;;;;;;;2.38;100.00;102160.78;5094269;28;20202;-44
2022/01/19 07:35:31;;;;;;;37.10;20.60;;;;;;;2.36;100.00;102157.22;5082341;28;20186;-43
2022/01/19 07:37:57;;;;;;;40.65;20.98;;;;;;;2.40;100.00;102167.00;5098173;28;21062;-44
2022/01/19 07:40:23;;;;;;;44.58;21.92;;;;;;;2.37;100.00;102167.84;5091341;28;20348;-43
2022/01/19 07:42:50;;;;;;;46.63;21.75;;;;;;;2.35;100.00;102159.00;5091081;28;20745;-44
2022/01/19 07:45:38;;;;;;;37.65;21.35;;;;;;;2.41;100.00;102151.16;5053561;28;20254;-42
2022/01/19 07:48:22;;;;;;;41.25;21.27;;;;;;;2.37;100.00;102154.63;5092708;28;20278;-43
2022/01/19 07:51:07;;;;;;;40.92;20.17;;;;;;;2.50;100.00;102139.84;5091191;28;20674;-43
2022/01/19 07:53:38;;;;;;;39.65;19.98;;;;;;;2.40;100.00;102130.84;5091006;28;20238;-43
2022/01/19 07:56:32;;;;;;;41.33;20.75;;;;;;;2.41;100.00;102131.75;5036710;28;20266;-43
2022/01/19 07:59:01;;;;;;;38.75;20.17;;;;;;;2.41;100.00;102113.25;5092494;28;20213;-44
2022/01/19 08:01:32;;;;;;;37.08;20.13;;;;;;;2.43;100.00;102115.03;5092489;28;20174;-43
2022/01/19 08:04:20;;;;;;;36.53;18.92;;;;;;;2.46;100.00;102106.25;5089344;28;20224;-45
2022/01/19 08:06:47;;;;;;;39.40;20.05;;;;;;;2.56;100.00;102107.28;5090543;28;20197;-42
2022/01/19 08:09:13;;;;;;;33.55;19.20;;;;;;;2.44;100.00;102087.72;5091736;28;20169;-44
2022/01/19 08:11:38;;;;;;;36.10;18.92;;;;;;;2.44;100.00;102085.06;5092456;28;20174;-44
2022/01/19 08:14:30;;;;;;;36.72;18.05;;;;;;;2.56;100.00;102075.53;5088905;28;20631;-46
2022/01/19 08:16:56;;;;;;;33.80;17.40;;;;;;;2.43;100.00;102067.44;5103886;28;20208;-44
2022/01/19 08:19:25;;;;;;;38.92;16.75;;;;;;;2.44;100.00;102079.78;5109697;28;20217;-44
2022/01/19 08:21:51;;;;;;;29.35;15.18;;;;;;;2.46;100.00;102067.47;5109145;28;20275;-43
2022/01/19 08:24:17;;;;;;;28.20;15.90;;;;;;;2.46;100.00;102074.53;5111039;28;20248;-44
2022/01/19 08:26:44;;;;;;;35.10;16.00;;;;;;;2.52;100.00;102063.16;5110395;28;20204;-44
2022/01/19 08:29:16;;;;;;;26.88;15.63;;;;;;;2.54;100.00;102066.72;5110667;28;20176;-44
2022/01/19 08:31:42;;;;;;;22.15;14.38;;;;;;;2.47;100.00;102053.41;5109589;28;20264;-42
2022/01/19 08:34:07;;;;;;;32.60;15.68;;;;;;;2.50;100.00;102054.31;5110901;28;20224;-44
2022/01/19 08:36:51;;;;;;;28.83;14.70;;;;;;;2.52;100.00;102042.88;5110359;28;20707;-44
2022/01/19 08:39:19;;;;;;;30.23;15.25;;;;;;;2.64;100.00;102044.78;5110813;28;20177;-44
2022/01/19 08:41:46;;;;;;;28.58;14.50;;;;;;;2.61;100.00;102043.00;5109612;28;20173;-43
2022/01/19 08:44:11;;;;;;;26.98;14.52;;;;;;;2.64;100.00;102026.28;5110001;28;20566;-43
2022/01/19 08:46:40;;;;;;;29.67;15.68;;;;;;;2.58;100.00;102023.53;5109354;28;20238;-43
2022/01/19 08:49:44;;;;;;;28.13;15.23;;;;;;;2.61;100.00;102021.84;5062947;28;20175;-44
2022/01/19 08:52:28;;;;;;;30.17;15.63;;;;;;;2.57;100.00;102009.44;5064083;28;20224;-43
2022/01/19 08:55:07;;;;;;;27.20;14.90;;;;;;;2.56;100.00;102018.25;5084245;28;20333;-43
2022/01/19 08:57:32;;;;;;;30.20;16.38;;;;;;;2.70;100.00;102009.59;5110721;28;20216;-44
2022/01/19 08:59:57;;;;;;;29.10;15.93;;;;;;;2.68;100.00;102010.47;5110914;28;20235;-42
2022/01/19 09:02:23;;;;;;;31.45;16.98;;;;;;;2.73;100.00;101999.94;5109589;27;20196;-43
2022/01/19 09:04:48;;;;;;;30.92;16.75;;;;;;;2.65;100.00;101999.84;5109516;28;20169;-43
2022/01/19 09:07:14;;;;;;;35.88;17.23;;;;;;;2.75;100.00;102005.25;5108370;27;20252;-44
2022/01/19 09:09:39;;;;;;;34.05;18.00;;;;;;;2.73;100.00;101994.63;5114332;27;20515;-44
2022/01/19 09:12:05;;;;;;;33.17;18.90;;;;;;;2.72;100.00;101992.88;5107361;27;20205;-43
2022/01/19 09:14:31;;;;;;;32.47;18.73;;;;;;;2.76;100.00;101984.09;5110163;28;20185;-42
2022/01/19 09:16:57;;;;;;;32.50;18.77;;;;;;;2.83;100.00;101978.00;5110768;28;20178;-43
2022/01/19 09:19:23;;;;;;;34.90;19.25;;;;;;;2.72;100.00;101979.66;5110893;28;20181;-44
2022/01/19 09:21:49;;;;;;;31.70;19.40;;;;;;;2.71;100.00;101975.19;5111395;28;20198;-45
2022/01/19 09:24:16;;;;;;;40.47;19.52;;;;;;;2.68;100.00;101969.88;5111660;28;20181;-45
2022/01/19 09:26:42;;;;;;;36.35;19.50;;;;;;;2.77;100.00;101964.69;5111120;28;20185;-43
2022/01/19 09:29:07;;;;;;;35.33;19.90;;;;;;;2.66;100.00;101953.09;5111265;28;20264;-43
2022/01/19 09:31:34;;;;;;;41.42;20.48;;;;;;;2.71;100.00;101950.50;5111274;28;20178;-43
2022/01/19 09:34:09;;;;;;;40.13;21.00;;;;;;;2.58;100.00;101939.78;5110905;28;20277;-44
2022/01/19 09:36:44;;;;;;;41.53;21.92;;;;;;;2.63;100.00;101939.84;5100362;28;20200;-44
2022/01/19 09:39:11;;;;;;;47.35;22.60;;;;;;;2.53;100.00;101946.75;5090245;28;20172;-43
2022/01/19 09:41:36;;;;;;;44.72;22.33;;;;;;;2.56;100.00;101943.25;5089134;28;20268;-41
2022/01/19 09:44:03;;;;;;;43.30;22.10;;;;;;;2.64;100.00;101938.97;5089447;28;20265;-44
2022/01/19 09:46:29;;;;;;;41.17;21.42;;;;;;;2.59;100.00;101938.91;5089462;28;20599;-43
2022/01/19 09:48:56;;;;;;;43.80;21.67;;;;;;;2.64;100.00;101936.31;5090177;28;20241;-44
2022/01/19 09:51:22;;;;;;;46.35;23.02;;;;;;;2.74;100.00;101940.84;5089377;28;20611;-43
2022/01/19 09:53:47;;;;;;;41.25;22.30;;;;;;;2.74;100.00;101937.34;5089399;28;20217;-41
2022/01/19 09:56:16;;;;;;;47.72;22.02;;;;;;;2.64;100.00;101933.66;5090142;28;20705;-43
2022/01/19 09:58:41;;;;;;;43.95;21.65;;;;;;;2.67;100.00;101928.44;5090575;28;20207;-42
2022/01/19 10:01:07;;;;;;;45.80;22.77;;;;;;;2.73;100.00;101925.84;5090567;28;20173;-44
2022/01/19 10:03:33;;;;;;;51.47;25.48;;;;;;;2.68;100.00;101927.56;5090300;28;20182;-45
2022/01/19 10:06:07;;;;;;;48.25;23.85;;;;;;;2.73;100.00;101901.13;5090152;28;20201;-46
2022/01/19 10:08:41;;;;;;;45.83;24.23;;;;;;;2.77;100.00;101901.19;5089063;28;20196;-44
2022/01/19 10:17:04;;;;;;;43.55;24.45;;;;;;;2.83;100.00;101872.16;5090047;28;20190;-44
2022/01/19 10:20:00;;;;;;;53.45;26.17;;;;;;;2.90;100.00;101883.69;5090140;28;20188;-43
2022/01/19 10:22:29;;;;;;;47.03;24.52;;;;;;;2.99;100.00;101873.19;5072648;28;20561;-43
2022/01/19 10:25:04;;;;;;;51.28;26.20;;;;;;;2.99;100.00;101864.34;5090231;28;20247;-43
2022/01/19 10:27:39;;;;;;;56.33;26.00;;;;;;;3.03;100.00;101850.28;5089655;28;20284;-43
2022/01/19 10:30:04;;;;;;;51.72;26.25;;;;;;;3.05;100.00;101843.25;5089219;28;20188;-43
2022/01/19 10:32:46;;;;;;;45.00;25.05;;;;;;;3.10;100.00;101841.50;5089791;28;20338;-43
2022/01/19 10:35:21;;;;;;;47.90;25.15;;;;;;;3.17;100.00;101847.75;5090187;28;20181;-43
2022/01/19 10:38:05;;;;;;;47.58;25.33;;;;;;;3.21;100.00;101838.97;5089617;28;20256;-43
2022/01/19 10:40:32;;;;;;;47.00;25.40;;;;;;;3.18;100.00;101836.28;5090366;28;20174;-43
2022/01/19 10:42:57;;;;;;;44.47;25.23;;;;;;;3.28;100.00;101839.03;5090024;28;20632;-43
2022/01/19 10:45:22;;;;;;;49.78;27.35;;;;;;;3.23;100.00;101826.63;5089662;28;20202;-44
2022/01/19 10:47:56;;;;;;;53.33;26.20;;;;;;;3.30;100.00;101824.06;5089781;28;20256;-45
2022/01/19 10:50:28;;;;;;;45.28;26.27;;;;;;;3.33;100.00;101811.72;5089726;28;20177;-42
2022/01/19 10:52:55;;;;;;;45.83;27.02;;;;;;;3.31;100.00;101816.97;5089981;28;20205;-43
2022/01/19 10:55:41;;;;;;;41.97;25.55;;;;;;;3.43;99.83;101797.63;5089661;28;20178;-42
2022/01/19 10:58:15;;;;;;;42.25;26.05;;;;;;;3.44;99.25;101791.47;5088893;28;20166;-42
2022/01/19 11:00:47;;;;;;;50.92;26.40;;;;;;;3.48;99.40;101788.84;5089790;28;20605;-42
2022/01/19 11:03:26;;;;;;;45.97;26.30;;;;;;;3.58;98.52;101773.00;5090879;28;20170;-44
2022/01/19 11:05:53;;;;;;;47.58;25.95;;;;;;;3.56;98.02;101767.69;5093476;28;20209;-44
2022/01/19 11:08:20;;;;;;;45.55;26.23;;;;;;;3.62;97.30;101751.81;5093443;28;20631;-45
2022/01/19 11:10:49;;;;;;;42.10;25.85;;;;;;;3.60;97.03;101735.03;5093777;28;20166;-42
2022/01/19 11:13:27;;;;;;;41.25;25.17;;;;;;;3.66;96.56;101716.50;5093594;28;20243;-43
2022/01/19 11:15:53;;;;;;;46.70;27.30;;;;;;;3.74;96.16;101698.00;5093284;28;20201;-45
2022/01/19 11:18:25;;;;;;;46.95;26.88;;;;;;;3.77;95.77;101683.88;5093270;28;20262;-42
2022/01/19 11:20:52;;;;;;;44.47;26.00;;;;;;;3.80;95.36;101686.53;5093230;28;20182;-44
2022/01/19 11:23:33;;;;;;;42.30;25.75;;;;;;;3.90;94.71;101680.38;5093393;28;20176;-44
2022/01/19 11:26:04;;;;;;;41.40;25.60;;;;;;;3.87;94.31;101678.63;5092964;28;20209;-43
2022/01/19 11:28:35;;;;;;;42.83;26.38;;;;;;;3.91;94.33;101668.88;5093512;28;20509;-43
2022/01/19 11:31:10;;;;;;;44.40;26.40;;;;;;;3.89;93.95;101668.91;5091211;28;20178;-42
2022/01/19 11:33:47;;;;;;;45.65;27.45;;;;;;;3.94;93.68;101657.44;5093264;28;20198;-44
2022/01/19 11:36:29;;;;;;;47.53;26.48;;;;;;;3.93;93.49;101651.22;5092565;28;20728;-44
2022/01/19 11:39:17;;;;;;;44.03;26.27;;;;;;;3.94;93.31;101633.56;5093243;28;20166;-42
2022/01/19 11:41:54;;;;;;;48.75;26.27;;;;;;;4.00;93.40;101630.91;5091538;28;20190;-43
2022/01/19 11:44:40;;;;;;;41.45;25.42;;;;;;;4.01;92.86;101635.34;5092835;28;20181;-44
2022/01/19 11:47:09;;;;;;;41.22;26.33;;;;;;;3.95;92.62;101625.59;5091486;28;20288;-44
2022/01/19 11:49:50;;;;;;;44.97;26.63;;;;;;;3.97;92.78;101610.56;5092724;28;20178;-43
2022/01/19 11:52:21;;;;;;;46.72;26.30;;;;;;;4.10;92.40;101611.47;5092995;28;20538;-42
2022/01/19 11:54:49;;;;;;;43.53;26.92;;;;;;;4.00;92.63;101615.91;5093080;28;20162;-42
2022/01/19 11:57:17;;;;;;;42.30;26.60;;;;;;;4.07;92.59;101622.09;5092642;28;20258;-44
2022/01/19 11:59:46;;;;;;;53.67;27.60;;;;;;;3.96;92.50;101608.81;5092576;28;20610;-45
2022/01/19 12:02:20;;;;;;;49.58;29.10;;;;;;;3.90;92.48;101598.19;5092345;28;20174;-45
2022/01/19 12:05:00;;;;;;;50.25;29.42;;;;;;;3.89;92.89;101591.13;5092627;28;20262;-42
2022/01/19 12:07:38;;;;;;;49.97;29.08;;;;;;;3.91;93.38;101573.44;5092157;28;20182;-43
2022/01/19 12:10:06;;;;;;;51.05;30.45;;;;;;;3.95;93.02;101574.34;5092529;28;20186;-44
2022/01/19 12:12:37;;;;;;;46.20;28.00;;;;;;;4.03;93.12;101567.28;5085466;23;20231;-43
2022/01/19 12:15:07;;;;;;;46.40;27.88;;;;;;;3.93;92.73;101553.13;4943226;28;20202;-43
2022/01/19 12:17:53;;;;;;;46.42;29.08;;;;;;;4.03;92.55;101549.59;4934270;29;20175;-41
2022/01/19 12:20:46;;;;;;;45.50;26.88;;;;;;;4.11;92.35;101537.25;4953982;29;20174;-41
2022/01/19 12:23:29;;;;;;;51.95;27.80;;;;;;;4.05;92.12;101521.31;4954739;29;20179;-42
2022/01/19 12:25:57;;;;;;;48.78;29.58;;;;;;;4.03;92.00;101535.47;4954161;28;20214;-41
2022/01/19 12:28:43;;;;;;;46.97;29.25;;;;;;;4.01;92.41;101503.66;4954290;29;20171;-41
2022/01/19 12:31:23;;;;;;;47.85;28.85;;;;;;;4.10;92.02;101493.03;4952886;29;20612;-41
2022/01/19 12:34:04;;;;;;;47.42;29.10;;;;;;;4.04;92.48;101486.84;4936854;29;20691;-42
2022/01/19 12:36:55;;;;;;;46.50;29.15;;;;;;;4.05;92.07;101472.72;4953978;28;20257;-42
2022/01/19 12:39:27;;;;;;;56.47;29.88;;;;;;;4.02;91.99;101470.06;4954844;29;20178;-42
2022/01/19 12:42:00;;;;;;;49.28;28.58;;;;;;;4.02;92.41;101464.75;4954376;29;20197;-43
2022/01/19 12:44:34;;;;;;;47.42;29.73;;;;;;;3.95;92.49;101450.63;4948837;29;20167;-40
2022/01/19 12:47:01;;;;;;;50.33;29.90;;;;;;;3.95;92.39;101442.66;4954388;28;20190;-43
2022/01/19 12:49:28;;;;;;;50.70;31.48;;;;;;;3.96;92.97;101439.16;4954337;29;20191;-41
2022/01/19 12:51:54;;;;;;;50.78;31.90;;;;;;;3.92;93.26;101438.25;4943742;29;20175;-42